createdAt,value
2019-02-19T00:01:00.860Z,99275.57
2019-02-19T00:03:29.933Z,99273.78
2019-02-19T00:06:00.351Z,99279.25
2019-02-19T00:08:29.476Z,99278.95
2019-02-19T00:11:00.086Z,99278.64
2019-02-19T00:13:29.166Z,99283.80
2019-02-19T00:15:58.236Z,99284.73
2019-02-19T00:18:27.476Z,99286.80
2019-02-19T00:20:56.592Z,99290.27
2019-02-19T00:23:25.702Z,99285.66
2019-02-19T00:25:54.777Z,99287.48
2019-02-19T00:28:24.001Z,99286.55
2019-02-19T00:30:53.096Z,99282.33
2019-02-19T00:33:22.231Z,99287.55
2019-02-19T00:35:51.358Z,99284.86
2019-02-19T00:38:20.794Z,99280.88
2019-02-19T00:40:52.392Z,99288.78
2019-02-19T00:43:30.520Z,99286.09
2019-02-19T00:46:00.730Z,99287.09
2019-02-19T00:48:30.233Z,99287.79
2019-02-19T00:50:59.518Z,99291.78
2019-02-19T00:53:28.929Z,99291.34
2019-02-19T00:56:00.737Z,99289.78
2019-02-19T00:58:29.867Z,99286.80
2019-02-19T01:00:59.031Z,99287.41
2019-02-19T01:03:28.155Z,99290.27
2019-02-19T01:05:57.380Z,99286.78
2019-02-19T01:08:26.495Z,99289.65
2019-02-19T01:10:55.587Z,99288.58
2019-02-19T01:13:24.755Z,99283.35
2019-02-19T01:15:53.803Z,99290.96
2019-02-19T01:18:22.983Z,99283.56
2019-02-19T01:20:53.625Z,99280.80
2019-02-19T01:23:22.772Z,99289.48
2019-02-19T01:25:51.835Z,99282.05
2019-02-19T01:28:21.002Z,99284.66
2019-02-19T01:30:50.153Z,99285.17
2019-02-19T01:33:19.256Z,99285.03
2019-02-19T01:35:48.356Z,99290.63
2019-02-19T01:38:19.634Z,99286.69
2019-02-19T01:40:48.700Z,99283.13
2019-02-19T01:43:17.851Z,99282.52
2019-02-19T01:45:46.987Z,99284.59
2019-02-19T01:48:16.098Z,99286.50
2019-02-19T01:50:47.238Z,99288.06
2019-02-19T01:53:17.517Z,99279.75
2019-02-19T01:55:46.601Z,99285.03
2019-02-19T01:58:15.666Z,99281.66
2019-02-19T02:00:44.755Z,99280.48
2019-02-19T02:03:13.850Z,99278.00
2019-02-19T02:05:44.141Z,99276.65
2019-02-19T02:08:13.188Z,99272.34
2019-02-19T02:10:42.362Z,99268.05
2019-02-19T02:13:11.412Z,99271.00
2019-02-19T02:15:42.771Z,99266.78
2019-02-19T02:18:11.298Z,99261.64
2019-02-19T02:20:43.176Z,99265.27
2019-02-19T02:23:12.323Z,99260.36
2019-02-19T02:25:42.641Z,99259.28
2019-02-19T02:28:11.727Z,99258.72
2019-02-19T02:30:40.861Z,99258.98
2019-02-19T02:33:09.946Z,99260.71
2019-02-19T02:35:39.101Z,99262.39
2019-02-19T02:38:08.175Z,99268.13
2019-02-19T02:40:37.312Z,99261.56
2019-02-19T02:43:06.418Z,99261.81
2019-02-19T02:45:35.651Z,99254.50
2019-02-19T02:48:04.796Z,99258.19
2019-02-19T02:50:33.916Z,99261.18
2019-02-19T02:53:03.031Z,99260.03
2019-02-19T02:55:32.156Z,99266.97
2019-02-19T02:58:01.261Z,99263.75
2019-02-19T03:00:30.439Z,99267.37
2019-02-19T03:02:59.521Z,99265.59
2019-02-19T03:05:30.411Z,99263.58
2019-02-19T03:08:02.678Z,99260.32
2019-02-19T03:10:31.868Z,99264.22
2019-02-19T03:13:00.947Z,99259.66
2019-02-19T03:15:31.434Z,99261.60
2019-02-19T03:18:00.562Z,99263.09
2019-02-19T03:20:29.722Z,99256.56
2019-02-19T03:22:58.834Z,99247.87
2019-02-19T03:25:27.943Z,99255.42
2019-02-19T03:27:57.127Z,99256.83
2019-02-19T03:30:29.985Z,99259.78
2019-02-19T03:33:00.442Z,99260.45
2019-02-19T03:35:30.896Z,99261.67
2019-02-19T03:37:59.992Z,99254.27
2019-02-19T03:40:29.776Z,99253.84
2019-02-19T03:43:00.575Z,99256.99
2019-02-19T03:45:29.985Z,99263.30
2019-02-19T03:47:59.097Z,99256.20
2019-02-19T03:50:31.217Z,99261.89
2019-02-19T03:53:00.365Z,99266.16
2019-02-19T03:55:29.447Z,99265.86
2019-02-19T03:57:58.628Z,99267.03
2019-02-19T04:00:27.729Z,99269.65
2019-02-19T04:02:56.922Z,99263.03
2019-02-19T04:05:27.092Z,99271.72
2019-02-19T04:07:56.280Z,99266.83
2019-02-19T04:10:25.453Z,99273.67
2019-02-19T04:12:54.627Z,99272.43
2019-02-19T04:15:23.861Z,99272.66
2019-02-19T04:17:52.926Z,99268.80
2019-02-19T04:20:22.021Z,99273.20
2019-02-19T04:22:51.222Z,99276.81
2019-02-19T04:25:24.441Z,99280.73
2019-02-19T04:27:54.676Z,99276.98
2019-02-19T04:30:23.808Z,99275.45
2019-02-19T04:32:52.944Z,99270.26
2019-02-19T04:35:24.973Z,99280.41
2019-02-19T04:37:54.159Z,99243.50
2019-02-19T04:40:23.228Z,99280.77
2019-02-19T04:42:53.318Z,99276.37
2019-02-19T04:45:23.733Z,99271.39
2019-02-19T04:47:52.816Z,99276.94
2019-02-19T04:50:21.982Z,99277.70
2019-02-19T04:52:52.701Z,99279.31
2019-02-19T04:55:23.799Z,99280.83
2019-02-19T04:57:52.890Z,99281.88
2019-02-19T05:00:23.197Z,99286.92
2019-02-19T05:02:52.349Z,99280.75
2019-02-19T05:05:21.493Z,99278.77
2019-02-19T05:07:50.623Z,99284.08
2019-02-19T05:10:19.703Z,99287.45
2019-02-19T05:12:50.836Z,99283.14
2019-02-19T05:15:19.947Z,99287.98
2019-02-19T05:17:49.002Z,99286.82
2019-02-19T05:20:18.109Z,99288.14
2019-02-19T05:22:47.239Z,99288.06
2019-02-19T05:25:18.373Z,99290.03
2019-02-19T05:27:47.439Z,99293.36
2019-02-19T05:30:16.603Z,99288.61
2019-02-19T05:32:45.731Z,99291.05
2019-02-19T05:35:14.919Z,99285.99
2019-02-19T05:37:44.050Z,99283.45
2019-02-19T05:40:13.132Z,99285.70
2019-02-19T05:42:42.283Z,99275.31
2019-02-19T05:45:11.435Z,99275.95
2019-02-19T05:47:40.549Z,99285.03
2019-02-19T05:50:09.812Z,99276.84
2019-02-19T05:52:38.870Z,99282.08
2019-02-19T05:55:08.018Z,99284.19
2019-02-19T05:57:37.115Z,99277.28
2019-02-19T06:00:06.990Z,99273.52
2019-02-19T06:02:36.169Z,99284.50
2019-02-19T06:05:06.080Z,99295.02
2019-02-19T06:07:35.150Z,99291.92
2019-02-19T06:10:04.826Z,99294.49
2019-02-19T06:12:36.030Z,99285.00
2019-02-19T06:15:06.202Z,99281.10
2019-02-19T06:17:35.442Z,99283.72
2019-02-19T06:20:06.093Z,99293.02
2019-02-19T06:22:35.203Z,99303.86
2019-02-19T06:25:05.807Z,99308.64
2019-02-19T06:27:34.967Z,99313.27
2019-02-19T06:30:04.138Z,99317.03
2019-02-19T06:32:33.235Z,99310.87
2019-02-19T06:35:04.597Z,99318.67
2019-02-19T06:37:33.693Z,99315.64
2019-02-19T06:40:02.817Z,99317.74
2019-02-19T06:42:31.985Z,99323.28
2019-02-19T06:45:03.981Z,99330.95
2019-02-19T06:47:33.069Z,99328.31
2019-02-19T06:50:02.197Z,99331.44
2019-02-19T06:52:31.635Z,99338.40
2019-02-19T06:55:02.320Z,99338.02
2019-02-19T06:57:33.784Z,99347.80
2019-02-19T07:00:04.758Z,99350.41
2019-02-19T07:02:40.229Z,99353.30
2019-02-19T07:05:19.569Z,99358.47
2019-02-19T07:07:48.753Z,99358.15
2019-02-19T07:10:19.082Z,99070.80
2019-02-19T07:12:50.751Z,99364.73
2019-02-19T07:15:21.520Z,99368.63
2019-02-19T07:17:50.605Z,99380.47
2019-02-19T07:20:20.937Z,99384.63
2019-02-19T07:22:53.972Z,99382.35
2019-02-19T07:25:24.613Z,99397.00
2019-02-19T07:27:53.716Z,99404.05
2019-02-19T07:30:24.293Z,99402.14
2019-02-19T07:32:53.430Z,99404.72
2019-02-19T07:35:24.785Z,99400.52
2019-02-19T07:37:57.767Z,99406.66
2019-02-19T07:40:32.997Z,99410.95
2019-02-19T07:43:02.133Z,99410.17
2019-02-19T07:45:31.224Z,99413.66
2019-02-19T07:48:00.344Z,99418.18
2019-02-19T07:50:29.746Z,99418.10
2019-02-19T07:52:58.865Z,99426.86
2019-02-19T07:55:30.500Z,99425.15
2019-02-19T07:57:59.645Z,99440.72
2019-02-19T08:00:28.776Z,99445.56
2019-02-19T08:02:57.891Z,99441.84
2019-02-19T08:05:27.089Z,99446.69
2019-02-19T08:07:58.974Z,99441.08
2019-02-19T08:10:30.414Z,99442.78
2019-02-19T08:12:59.487Z,99449.81
2019-02-19T08:15:28.589Z,99454.13
2019-02-19T08:17:57.652Z,99448.45
2019-02-19T08:20:28.928Z,99453.43
2019-02-19T08:22:58.017Z,99452.34
2019-02-19T08:25:27.124Z,99459.11
2019-02-19T08:27:56.204Z,99459.77
2019-02-19T08:30:25.283Z,99468.41
2019-02-19T08:32:54.403Z,99466.14
2019-02-19T08:35:23.509Z,99472.11
2019-02-19T08:37:52.574Z,99477.16
2019-02-19T08:40:21.681Z,99485.45
2019-02-19T08:42:50.829Z,99479.92
2019-02-19T08:45:19.871Z,99487.39
2019-02-19T08:47:48.991Z,99486.92
2019-02-19T08:50:21.933Z,99485.22
2019-02-19T08:52:51.035Z,99486.83
2019-02-19T08:55:20.096Z,99492.19
2019-02-19T08:57:49.186Z,99493.12
2019-02-19T09:00:19.471Z,99496.86
2019-02-19T09:02:48.605Z,99502.89
2019-02-19T09:05:17.765Z,99495.38
2019-02-19T09:07:46.907Z,99504.68
2019-02-19T09:10:16.038Z,99503.45
2019-02-19T09:12:46.538Z,99507.98
2019-02-19T09:15:16.831Z,99506.92
2019-02-19T09:17:52.051Z,99504.09
2019-02-19T09:20:17.982Z,99506.52
2019-02-19T09:22:47.049Z,99506.41
2019-02-19T09:25:16.278Z,99517.91
2019-02-19T09:27:45.339Z,99512.52
2019-02-19T09:30:14.537Z,99506.81
2019-02-19T09:32:43.587Z,99506.60
2019-02-19T09:35:12.709Z,99510.18
2019-02-19T09:37:41.819Z,99508.21
2019-02-19T09:40:10.933Z,99523.18
2019-02-19T09:42:40.229Z,99517.22
2019-02-19T09:45:09.424Z,99524.45
2019-02-19T09:47:38.481Z,99518.51
2019-02-19T09:50:08.453Z,99518.68
2019-02-19T09:52:37.526Z,99522.41
2019-02-19T09:55:09.193Z,99525.19
2019-02-19T09:57:38.337Z,99517.08
2019-02-19T10:00:09.137Z,99520.67
2019-02-19T10:02:38.178Z,99522.25
2019-02-19T10:05:08.799Z,99524.62
2019-02-19T10:07:37.907Z,99525.94
2019-02-19T10:10:11.246Z,99529.67
2019-02-19T10:12:41.873Z,99526.23
2019-02-19T10:15:12.159Z,99523.50
2019-02-19T10:17:41.253Z,99524.28
2019-02-19T10:20:13.421Z,99524.00
2019-02-19T10:22:42.689Z,99537.77
2019-02-19T10:25:12.547Z,99541.14
2019-02-19T10:27:41.594Z,99548.43
2019-02-19T10:30:13.730Z,99412.20
2019-02-19T10:32:42.843Z,99549.65
2019-02-19T10:35:12.215Z,99552.86
2019-02-19T10:37:41.283Z,99555.21
2019-02-19T10:40:12.490Z,99553.81
2019-02-19T10:42:41.520Z,99547.60
2019-02-19T10:45:13.041Z,99548.88
2019-02-19T10:47:42.293Z,99556.77
2019-02-19T10:50:12.995Z,99555.24
2019-02-19T10:52:42.175Z,99561.20
2019-02-19T10:55:11.412Z,99563.05
2019-02-19T10:57:44.769Z,99566.45
2019-02-19T11:00:16.995Z,99571.78
2019-02-19T11:02:46.112Z,99568.53
2019-02-19T11:05:17.329Z,99504.90
2019-02-19T11:07:46.687Z,99566.67
2019-02-19T11:10:15.869Z,99566.44
2019-02-19T11:12:46.326Z,99560.44
2019-02-19T11:15:17.326Z,99556.63
2019-02-19T11:17:46.789Z,99565.38
2019-02-19T11:20:15.948Z,99561.11
2019-02-19T11:22:45.130Z,99567.43
2019-02-19T11:25:14.911Z,99562.98
2019-02-19T11:27:44.182Z,99562.98
2019-02-19T11:30:14.983Z,99556.87
2019-02-19T11:32:44.295Z,99558.09
2019-02-19T11:35:15.625Z,99555.23
2019-02-19T11:37:44.850Z,99542.95
2019-02-19T11:40:15.113Z,99541.40
2019-02-19T11:42:44.231Z,99536.87
2019-02-19T11:45:14.057Z,99537.89
2019-02-19T11:47:43.175Z,99528.31
2019-02-19T11:50:13.943Z,99531.09
2019-02-19T11:52:43.346Z,99521.90
2019-02-19T11:55:13.046Z,99518.19
2019-02-19T11:57:43.156Z,99381.25
2019-02-19T12:00:15.472Z,99509.94
2019-02-19T12:02:44.678Z,99507.98
2019-02-19T12:05:13.886Z,99505.88
2019-02-19T12:07:43.006Z,99510.33
2019-02-19T12:10:12.292Z,99508.09
2019-02-19T12:12:45.067Z,99507.68
2019-02-19T12:15:14.204Z,99507.23
2019-02-19T12:17:44.392Z,99511.67
2019-02-19T12:20:14.725Z,99501.50
2019-02-19T12:22:43.867Z,99507.31
2019-02-19T12:25:14.054Z,99501.17
2019-02-19T12:27:43.254Z,99496.42
2019-02-19T12:30:13.161Z,99490.41
2019-02-19T12:32:42.437Z,99492.44
2019-02-19T12:35:13.788Z,99495.51
2019-02-19T12:37:42.916Z,99495.24
2019-02-19T12:40:12.013Z,99495.47
2019-02-19T12:42:41.129Z,99500.59
2019-02-19T12:45:10.950Z,99503.33
2019-02-19T12:47:40.130Z,99495.12
2019-02-19T12:50:10.971Z,99497.70
2019-02-19T12:52:40.304Z,99503.05
2019-02-19T12:55:10.290Z,99504.41
2019-02-19T12:57:39.401Z,99502.91
2019-02-19T13:00:13.446Z,99506.48
2019-02-19T13:02:44.034Z,99518.13
2019-02-19T13:05:13.605Z,99511.23
2019-02-19T13:07:44.582Z,99513.05
2019-02-19T13:10:14.621Z,99509.91
2019-02-19T13:12:45.843Z,99508.33
2019-02-19T13:15:15.618Z,99513.37
2019-02-19T13:17:44.734Z,99507.58
2019-02-19T13:20:14.246Z,99514.91
2019-02-19T13:22:43.405Z,99507.34
2019-02-19T13:25:12.448Z,99506.39
2019-02-19T13:27:41.673Z,99501.41
2019-02-19T13:30:13.209Z,99502.94
2019-02-19T13:32:43.814Z,99493.25
2019-02-19T13:35:13.163Z,99493.48
2019-02-19T13:37:43.532Z,99493.18
2019-02-19T13:40:13.021Z,99496.80
2019-02-19T13:42:42.162Z,99492.95
2019-02-19T13:45:12.269Z,99491.48
2019-02-19T13:47:41.414Z,99493.45
2019-02-19T13:50:13.555Z,99494.12
2019-02-19T13:53:04.591Z,99496.66
2019-02-19T13:55:39.479Z,99490.64
2019-02-19T13:58:08.652Z,99498.91
2019-02-19T14:00:39.932Z,99496.91
2019-02-19T14:03:09.003Z,99495.73
2019-02-19T14:05:38.163Z,99499.83
2019-02-19T14:08:14.337Z,99496.45
2019-02-19T14:10:38.235Z,99491.47
2019-02-19T14:13:07.369Z,99495.33
2019-02-19T14:16:00.547Z,99485.92
2019-02-19T14:18:48.808Z,99499.07
2019-02-19T14:21:46.301Z,99496.78
2019-02-19T14:24:43.495Z,99490.02
2019-02-19T14:27:20.731Z,99500.19
2019-02-19T14:30:10.868Z,99497.55
2019-02-19T14:33:05.188Z,99499.58
2019-02-19T14:35:51.954Z,99502.59
2019-02-19T14:38:52.767Z,99505.94
2019-02-19T14:41:53.957Z,99496.64
2019-02-19T14:44:43.611Z,99496.22
2019-02-19T14:47:39.256Z,99499.81
2019-02-19T14:50:27.935Z,99500.31
2019-02-19T14:53:33.875Z,99490.87
2019-02-19T14:56:40.379Z,99485.45
2019-02-19T14:59:27.774Z,99490.56
2019-02-19T15:02:17.340Z,99497.63
2019-02-19T15:05:24.556Z,99498.29
2019-02-19T15:08:12.693Z,99490.44
2019-02-19T15:11:00.827Z,99494.46
2019-02-19T15:13:53.970Z,99496.45
2019-02-19T15:16:54.472Z,99493.69
2019-02-19T15:19:39.199Z,99493.75
2019-02-19T15:22:44.746Z,99487.61
2019-02-19T15:25:44.159Z,99488.20
2019-02-19T15:28:35.545Z,99490.74
2019-02-19T15:31:22.452Z,99497.53
2019-02-19T15:34:13.259Z,99494.15
2019-02-19T15:37:00.142Z,99493.41
2019-02-19T15:39:54.302Z,99494.62
2019-02-19T15:42:40.951Z,99500.66
2019-02-19T15:45:31.759Z,99489.44
2019-02-19T15:48:22.905Z,99493.80
2019-02-19T15:51:02.807Z,99494.41
2019-02-19T15:53:53.795Z,99497.91
2019-02-19T15:56:47.751Z,99496.21
2019-02-19T15:59:34.333Z,99495.63
2019-02-19T16:02:17.895Z,99499.11
2019-02-19T16:05:12.433Z,99500.93
2019-02-19T16:07:51.470Z,99501.05
2019-02-19T16:10:35.883Z,99502.62
2019-02-19T16:13:12.834Z,99504.78
2019-02-19T16:16:06.622Z,99508.52
2019-02-19T16:18:57.364Z,99509.84
2019-02-19T16:22:00.487Z,99500.91
2019-02-19T16:25:05.117Z,99503.70
2019-02-19T16:27:53.102Z,99510.55
2019-02-19T16:30:47.349Z,99502.25
2019-02-19T16:33:23.986Z,99503.77
2019-02-19T16:36:27.353Z,99504.63
2019-02-19T16:39:10.510Z,99507.69
2019-02-19T16:42:00.159Z,99507.91
2019-02-19T16:44:40.529Z,99504.72
2019-02-19T16:47:31.625Z,99509.50
2019-02-19T16:50:26.649Z,99514.64
2019-02-19T16:53:30.049Z,99511.70
2019-02-19T16:56:20.466Z,99512.08
2019-02-19T16:59:14.376Z,99513.84
2019-02-19T17:02:02.589Z,99519.17
2019-02-19T17:04:49.251Z,99521.76
2019-02-19T17:07:35.913Z,99521.81
2019-02-19T17:10:23.326Z,99521.02
2019-02-19T17:13:21.491Z,99521.23
2019-02-19T17:16:24.603Z,99518.70
2019-02-19T17:19:11.328Z,99523.22
2019-02-19T17:21:47.479Z,99526.41
2019-02-19T17:24:53.003Z,99525.50
2019-02-19T17:27:51.092Z,99533.58
2019-02-19T17:30:38.132Z,99536.09
2019-02-19T17:33:21.675Z,99528.61
2019-02-19T17:39:16.411Z,99539.98
2019-02-19T17:42:01.615Z,99543.48
2019-02-19T17:44:50.110Z,99546.21
2019-02-19T17:47:49.389Z,99552.05
2019-02-19T17:50:40.437Z,99549.03
2019-02-19T17:53:27.033Z,99555.70
2019-02-19T17:56:21.144Z,99552.95
2019-02-19T17:59:07.579Z,99557.92
2019-02-19T18:01:57.194Z,99555.66
2019-02-19T18:04:48.208Z,99559.68
2019-02-19T18:07:42.103Z,99554.13
2019-02-19T18:10:45.349Z,99566.25
2019-02-19T18:13:21.716Z,99571.50
2019-02-19T18:16:10.264Z,99573.83
2019-02-19T18:18:49.150Z,99579.17
2019-02-19T18:21:25.799Z,99579.53
2019-02-19T18:23:54.915Z,99577.04
2019-02-19T18:26:25.125Z,99579.52
2019-02-19T18:28:55.564Z,99586.52
2019-02-19T18:31:24.607Z,99589.24
2019-02-19T18:33:54.671Z,99586.30
2019-02-19T18:36:23.815Z,99584.23
2019-02-19T18:38:55.130Z,99591.02
2019-02-19T18:41:24.256Z,99593.94
2019-02-19T18:43:53.662Z,99589.30
2019-02-19T18:46:22.909Z,99593.99
2019-02-19T18:48:53.173Z,99594.37
2019-02-19T18:51:22.313Z,99600.27
2019-02-19T18:53:51.400Z,99596.18
2019-02-19T18:56:20.634Z,99597.94
2019-02-19T18:58:49.764Z,99600.53
2019-02-19T19:01:19.094Z,99600.98
2019-02-19T19:03:48.246Z,99595.89
2019-02-19T19:06:19.438Z,99604.74
2019-02-19T19:08:48.639Z,99599.75
2019-02-19T19:11:18.194Z,99606.50
2019-02-19T19:13:47.337Z,99605.48
2019-02-19T19:16:20.187Z,99607.85
2019-02-19T19:18:50.496Z,99610.54
2019-02-19T19:21:20.671Z,99616.72
2019-02-19T19:23:49.773Z,99622.74
2019-02-19T19:26:18.993Z,99620.64
2019-02-19T19:28:48.052Z,99622.27
2019-02-19T19:31:20.041Z,99623.89
2019-02-19T19:33:49.087Z,99636.50
2019-02-19T19:36:18.197Z,99638.25
2019-02-19T19:38:47.272Z,99629.95
2019-02-19T19:41:16.393Z,99632.17
2019-02-19T19:43:45.435Z,99637.16
2019-02-19T19:46:14.567Z,99634.89
2019-02-19T19:48:43.617Z,99644.46
2019-02-19T19:51:17.391Z,99639.94
2019-02-19T19:53:44.641Z,99642.09
2019-02-19T19:56:13.757Z,99640.45
2019-02-19T19:58:43.897Z,99641.48
2019-02-19T20:01:13.082Z,99644.75
2019-02-19T20:03:42.117Z,99648.14
2019-02-19T20:06:13.497Z,99645.69
2019-02-19T20:08:42.553Z,99648.21
2019-02-19T20:11:11.977Z,99644.77
2019-02-19T20:13:41.106Z,99644.97
2019-02-19T20:16:12.462Z,99648.05
2019-02-19T20:18:41.643Z,99643.58
2019-02-19T20:21:11.089Z,99644.89
2019-02-19T20:23:40.473Z,99645.76
2019-02-19T20:26:09.684Z,99654.96
2019-02-19T20:28:39.078Z,99650.06
2019-02-19T20:31:08.133Z,99653.31
2019-02-19T20:33:37.954Z,99658.81
2019-02-19T20:36:07.253Z,99660.31
2019-02-19T20:38:36.397Z,99657.90
2019-02-19T20:41:05.478Z,99658.85
2019-02-19T20:43:34.544Z,99662.02
2019-02-19T20:46:03.627Z,99662.47
2019-02-19T20:48:32.697Z,99669.58
2019-02-19T20:51:01.816Z,99671.95
2019-02-19T20:53:30.983Z,99669.69
2019-02-19T20:56:00.117Z,99672.59
2019-02-19T20:58:29.327Z,99663.05
2019-02-19T21:00:58.496Z,99664.67
2019-02-19T21:03:27.609Z,99667.70
2019-02-19T21:05:56.712Z,99669.30
2019-02-19T21:08:25.809Z,99663.07
2019-02-19T21:10:54.908Z,99658.19
2019-02-19T21:13:24.104Z,99659.41
2019-02-19T21:15:53.227Z,99663.97
2019-02-19T21:18:22.305Z,99665.13
2019-02-19T21:20:55.050Z,99665.28
2019-02-19T21:23:24.237Z,99666.30
2019-02-19T21:25:54.426Z,99661.77
2019-02-19T21:28:24.771Z,99664.06
2019-02-19T21:30:54.125Z,99669.23
2019-02-19T21:33:23.302Z,99671.02
2019-02-19T21:35:52.831Z,99665.77
2019-02-19T21:38:23.026Z,99667.36
2019-02-19T21:40:53.907Z,99661.09
2019-02-19T21:43:23.031Z,99667.07
2019-02-19T21:45:52.177Z,99665.73
2019-02-19T21:48:21.293Z,99668.83
2019-02-19T21:50:50.357Z,99671.44
2019-02-19T21:53:19.461Z,99669.42
2019-02-19T21:55:50.786Z,99674.33
2019-02-19T21:58:19.905Z,99673.04
2019-02-19T22:00:49.072Z,99679.57
2019-02-19T22:03:18.186Z,99676.52
2019-02-19T22:05:47.271Z,99673.84
2019-02-19T22:08:16.320Z,99675.91
2019-02-19T22:10:45.443Z,99671.28
2019-02-19T22:13:14.536Z,99674.38
2019-02-19T22:15:43.695Z,99671.45
2019-02-19T22:18:12.842Z,99674.45
2019-02-19T22:20:52.656Z,99674.89
2019-02-19T22:23:21.713Z,99677.27
2019-02-19T22:25:50.771Z,99677.56
2019-02-19T22:28:22.970Z,99673.96
2019-02-19T22:30:52.182Z,99672.55
2019-02-19T22:33:21.277Z,99676.23
2019-02-19T22:35:50.369Z,99676.47
2019-02-19T22:38:19.463Z,99682.02
2019-02-19T22:40:54.934Z,99683.98
2019-02-19T22:43:19.411Z,99679.73
2019-02-19T22:45:48.566Z,99689.54
2019-02-19T22:48:17.586Z,99682.94
2019-02-19T22:50:46.741Z,99687.08
2019-02-19T22:53:42.397Z,99693.29
2019-02-19T22:56:21.294Z,99693.85
2019-02-19T22:58:52.159Z,99694.13
2019-02-19T23:01:39.638Z,99689.22
2019-02-19T23:04:08.754Z,99694.00
2019-02-19T23:06:39.345Z,99693.88
2019-02-19T23:09:08.501Z,99694.12
2019-02-19T23:11:37.583Z,99692.09
2019-02-19T23:14:06.609Z,99695.57
2019-02-19T23:16:35.744Z,99693.16
2019-02-19T23:19:04.848Z,99697.51
2019-02-19T23:21:33.968Z,99696.59
2019-02-19T23:24:03.056Z,99690.59
2019-02-19T23:26:33.697Z,99695.03
2019-02-19T23:29:02.791Z,99695.84
2019-02-19T23:31:31.878Z,99693.08
2019-02-19T23:34:01.017Z,99695.03
2019-02-19T23:37:04.324Z,99700.52
2019-02-19T23:39:43.659Z,99707.91
2019-02-19T23:42:09.061Z,99705.88
2019-02-19T23:44:38.215Z,99696.46
2019-02-19T23:47:07.295Z,99706.78
2019-02-19T23:49:36.398Z,99709.67
2019-02-19T23:52:05.527Z,99634.31
2019-02-19T23:54:34.593Z,99704.76
2019-02-19T23:57:03.740Z,99707.76
2019-02-19T23:59:32.843Z,99713.04
